Time;durP1;ratioP1;P1;durP2;ratioP2;P2;SDS_P1;SDS_P2;PMS_P1;PMS_P2;Temp;Humidity;BMP_temperature;BMP_pressure;BME280_temperature;BME280_humidity;BME280_pressure;Samples;Min_cycle;Max_cycle;Signal;HPM_P1;HPM_P2
2022/07/19 00:00:56;;;;;;;19.77;12.18;;;18.60;99.90;;;;;;5139466;27;20050;-67
2022/07/19 00:03:22;;;;;;;16.75;11.27;;;18.50;99.90;;;;;;5147590;27;20490;-67
2022/07/19 00:05:48;;;;;;;13.23;11.65;;;18.60;99.90;;;;;;5128795;27;20042;-67
2022/07/19 00:08:13;;;;;;;11.13;10.02;;;18.50;99.90;;;;;;5141294;27;20043;-67
2022/07/19 00:10:39;;;;;;;13.25;10.20;;;18.60;99.90;;;;;;5138612;27;20501;-67
2022/07/19 00:13:05;;;;;;;14.32;10.50;;;18.60;99.90;;;;;;5142732;27;20099;-67
2022/07/19 00:15:30;;;;;;;16.08;9.73;;;18.70;99.90;;;;;;5135231;27;20046;-67
2022/07/19 00:17:56;;;;;;;13.18;10.98;;;18.60;99.90;;;;;;5149211;27;20053;-67
2022/07/19 00:20:22;;;;;;;16.42;11.77;;;18.70;99.90;;;;;;5148842;27;20046;-68
2022/07/19 00:22:48;;;;;;;15.68;12.10;;;18.70;99.90;;;;;;5130346;27;20039;-67
2022/07/19 00:25:14;;;;;;;12.43;10.98;;;18.60;99.90;;;;;;5140059;27;20094;-67
2022/07/19 00:27:41;;;;;;;17.65;11.43;;;18.50;99.90;;;;;;5149325;27;20086;-68
2022/07/19 00:30:08;;;;;;;15.18;12.20;;;18.50;99.90;;;;;;5142239;27;20388;-67
2022/07/19 00:32:33;;;;;;;13.55;11.88;;;18.40;99.90;;;;;;5143680;27;20462;-67
2022/07/19 00:34:59;;;;;;;20.45;11.93;;;18.30;99.90;;;;;;5149654;27;20130;-68
2022/07/19 00:37:26;;;;;;;13.63;11.02;;;18.30;99.90;;;;;;5149777;27;20126;-67
2022/07/19 00:39:52;;;;;;;12.93;11.48;;;18.20;99.90;;;;;;5128716;27;20056;-68
2022/07/19 00:42:18;;;;;;;13.20;11.23;;;18.20;99.90;;;;;;5145400;27;20484;-67
2022/07/19 00:44:44;;;;;;;13.85;12.10;;;18.20;99.90;;;;;;5140330;27;20152;-67
2022/07/19 00:47:10;;;;;;;15.43;10.38;;;18.10;99.90;;;;;;5145285;27;20039;-67
2022/07/19 00:49:35;;;;;;;13.50;11.90;;;18.10;99.90;;;;;;5137834;27;20031;-67
2022/07/19 00:52:03;;;;;;;16.73;11.23;;;18.10;99.90;;;;;;5149093;27;20042;-68
2022/07/19 00:54:33;;;;;;;16.33;12.32;;;18.20;99.90;;;;;;5146978;27;20483;-68
2022/07/19 00:57:00;;;;;;;12.68;11.38;;;18.10;99.90;;;;;;5138755;27;20050;-68
2022/07/19 00:59:26;;;;;;;20.75;12.38;;;18.10;99.90;;;;;;5151046;27;20059;-68
2022/07/19 01:01:53;;;;;;;15.43;12.32;;;18.10;99.90;;;;;;5136019;27;20031;-68
2022/07/19 01:04:20;;;;;;;14.95;12.30;;;18.10;99.90;;;;;;5133368;27;20111;-68
2022/07/19 01:06:46;;;;;;;15.38;12.68;;;18.10;99.90;;;;;;5130655;27;20047;-68
2022/07/19 01:09:12;;;;;;;16.67;12.82;;;18.10;99.90;;;;;;5141682;27;20399;-67
2022/07/19 01:11:39;;;;;;;17.23;13.32;;;18.10;99.90;;;;;;5148954;27;20431;-67
2022/07/19 01:14:05;;;;;;;16.53;12.83;;;18.00;99.90;;;;;;5126121;27;20047;-68
2022/07/19 01:16:31;;;;;;;15.00;11.93;;;17.90;99.90;;;;;;5145441;27;20435;-67
2022/07/19 01:18:57;;;;;;;16.63;11.65;;;17.90;99.90;;;;;;5138763;27;20038;-67
2022/07/19 01:21:26;;;;;;;17.48;13.38;;;17.90;99.90;;;;;;5142348;27;20469;-67
2022/07/19 01:23:52;;;;;;;18.67;13.18;;;17.90;99.90;;;;;;5146765;27;20125;-68
2022/07/19 01:26:17;;;;;;;16.77;11.82;;;17.90;99.90;;;;;;5142854;27;20520;-67
2022/07/19 01:28:45;;;;;;;17.55;13.25;;;17.90;99.90;;;;;;5138760;27;20067;-67
2022/07/19 01:31:10;;;;;;;25.25;14.82;;;17.80;99.90;;;;;;5152147;27;20064;-68
2022/07/19 01:33:43;;;;;;;22.38;16.55;;;17.80;99.90;;;;;;5153088;27;20488;-67
2022/07/19 01:36:10;;;;;;;20.58;14.30;;;17.60;99.90;;;;;;5148476;27;20126;-67
2022/07/19 01:38:36;;;;;;;18.63;14.88;;;17.50;99.90;;;;;;5142875;27;20042;-67
2022/07/19 01:41:02;;;;;;;23.50;14.00;;;17.40;99.90;;;;;;5144991;27;20054;-67
2022/07/19 01:43:28;;;;;;;18.92;15.57;;;17.40;99.90;;;;;;5150452;27;20030;-67
2022/07/19 01:45:54;;;;;;;16.60;13.98;;;17.30;99.90;;;;;;5137344;27;20055;-67
2022/07/19 01:48:20;;;;;;;20.35;14.23;;;17.30;99.90;;;;;;5138371;27;20038;-68
2022/07/19 01:50:46;;;;;;;15.70;13.75;;;17.30;99.90;;;;;;5150715;27;20554;-67
2022/07/19 01:53:12;;;;;;;17.10;13.75;;;17.30;99.90;;;;;;5151490;27;20046;-67
2022/07/19 01:55:37;;;;;;;16.63;14.35;;;17.20;99.90;;;;;;5150235;27;20150;-67
2022/07/19 01:58:04;;;;;;;19.65;16.13;;;17.30;99.90;;;;;;5148174;27;20051;-67
2022/07/19 02:00:30;;;;;;;18.27;14.70;;;17.20;99.90;;;;;;5115830;27;20042;-67
2022/07/19 02:02:55;;;;;;;17.15;15.35;;;17.10;99.90;;;;;;5148540;27;20039;-67
2022/07/19 02:05:21;;;;;;;16.92;15.18;;;17.10;99.90;;;;;;5150721;27;20066;-67
2022/07/19 02:07:47;;;;;;;16.85;14.88;;;17.00;99.90;;;;;;5120694;27;20043;-67
2022/07/19 02:10:16;;;;;;;17.48;13.02;;;17.00;99.90;;;;;;5147725;27;20049;-67
2022/07/19 02:12:41;;;;;;;19.98;18.08;;;16.90;99.90;;;;;;5143948;27;20035;-68
2022/07/19 02:15:08;;;;;;;19.05;17.23;;;16.90;99.90;;;;;;5144927;27;20050;-67
2022/07/19 02:17:35;;;;;;;19.65;17.85;;;16.90;99.90;;;;;;5139555;27;20812;-67
2022/07/19 02:20:01;;;;;;;17.20;15.32;;;16.90;99.90;;;;;;5150451;27;20083;-68
2022/07/19 02:22:26;;;;;;;29.70;16.83;;;16.80;99.90;;;;;;5119963;27;20043;-67
2022/07/19 02:24:54;;;;;;;14.30;12.88;;;16.80;99.90;;;;;;5146899;27;20038;-67
2022/07/19 02:27:21;;;;;;;13.98;12.00;;;16.80;99.90;;;;;;5151572;27;20407;-67
2022/07/19 02:29:48;;;;;;;15.98;12.70;;;16.80;99.90;;;;;;5143390;27;20565;-67
2022/07/19 02:32:13;;;;;;;18.25;13.27;;;16.80;99.90;;;;;;5145654;27;20844;-67
2022/07/19 02:34:39;;;;;;;15.40;13.35;;;16.80;99.90;;;;;;5132464;27;20047;-67
2022/07/19 02:37:04;;;;;;;21.60;16.65;;;16.80;99.90;;;;;;5135458;27;20050;-68
2022/07/19 02:39:30;;;;;;;16.38;14.68;;;16.90;99.90;;;;;;5147452;27;20050;-67
2022/07/19 02:41:56;;;;;;;16.40;14.80;;;16.90;99.90;;;;;;5129511;27;20034;-67
2022/07/19 02:44:22;;;;;;;26.55;14.05;;;16.90;99.90;;;;;;5125690;27;20214;-67
2022/07/19 02:46:47;;;;;;;17.92;15.32;;;16.90;99.90;;;;;;5145936;27;20054;-68
2022/07/19 02:49:13;;;;;;;17.20;13.60;;;16.90;99.90;;;;;;5136140;27;20727;-69
2022/07/19 02:51:39;;;;;;;15.85;14.05;;;16.90;99.90;;;;;;5141927;27;20156;-68
2022/07/19 02:54:04;;;;;;;16.08;14.35;;;16.80;99.90;;;;;;5135583;27;20046;-69
2022/07/19 02:56:30;;;;;;;17.60;15.80;;;16.80;99.90;;;;;;5142876;27;20051;-68
2022/07/19 02:58:56;;;;;;;19.67;14.23;;;16.80;99.90;;;;;;5149374;27;20061;-68
2022/07/19 03:01:21;;;;;;;14.60;13.15;;;16.80;99.90;;;;;;5146149;27;20039;-68
2022/07/19 03:03:47;;;;;;;20.15;14.55;;;16.80;99.90;;;;;;5137848;27;20507;-68
2022/07/19 03:06:15;;;;;;;18.00;15.02;;;16.70;99.90;;;;;;5147373;27;20490;-68
2022/07/19 03:08:41;;;;;;;16.15;13.73;;;16.70;99.90;;;;;;5149493;27;20447;-68
2022/07/19 03:11:07;;;;;;;14.65;13.10;;;16.70;99.90;;;;;;5139341;27;20110;-68
2022/07/19 03:13:33;;;;;;;14.20;11.77;;;16.60;99.90;;;;;;5146788;27;20035;-68
2022/07/19 03:15:58;;;;;;;19.42;13.75;;;16.60;99.90;;;;;;5144327;27;20045;-69
2022/07/19 03:18:24;;;;;;;10.27;9.23;;;16.50;99.90;;;;;;5125929;27;20099;-68
2022/07/19 03:20:49;;;;;;;16.45;13.60;;;16.40;99.90;;;;;;5139419;27;20089;-69
2022/07/19 03:23:15;;;;;;;16.98;14.35;;;16.40;99.90;;;;;;5147415;27;20053;-69
2022/07/19 03:25:41;;;;;;;15.13;13.63;;;16.30;99.90;;;;;;5129052;27;20038;-69
2022/07/19 03:28:06;;;;;;;18.48;14.30;;;16.30;99.90;;;;;;5145827;27;20043;-69
2022/07/19 03:30:32;;;;;;;14.90;12.48;;;16.30;99.90;;;;;;5147499;27;20091;-69
2022/07/19 03:32:58;;;;;;;12.88;10.45;;;16.20;99.90;;;;;;5141656;27;20038;-69
2022/07/19 03:35:25;;;;;;;17.45;13.18;;;16.30;99.90;;;;;;5147966;27;20043;-68
2022/07/19 03:37:51;;;;;;;14.57;13.07;;;16.30;99.90;;;;;;5141654;27;20050;-68
2022/07/19 03:40:17;;;;;;;14.55;12.65;;;16.30;99.90;;;;;;5142527;27;20035;-69
2022/07/19 03:42:43;;;;;;;18.90;15.07;;;16.30;99.90;;;;;;5148210;27;20039;-68
2022/07/19 03:45:10;;;;;;;14.02;12.60;;;16.20;99.90;;;;;;5147242;27;20062;-68
2022/07/19 03:47:36;;;;;;;13.75;12.35;;;16.30;99.90;;;;;;5148162;27;20057;-67
2022/07/19 03:50:03;;;;;;;17.05;13.07;;;16.30;99.90;;;;;;5145094;27;20043;-68
2022/07/19 03:52:29;;;;;;;16.70;13.98;;;16.30;99.90;;;;;;5135340;27;20055;-68
2022/07/19 03:54:54;;;;;;;17.20;12.23;;;16.30;99.90;;;;;;5148818;27;20041;-68
2022/07/19 03:57:20;;;;;;;14.00;12.52;;;16.30;99.90;;;;;;5146997;27;20066;-68
2022/07/19 03:59:46;;;;;;;12.57;11.25;;;16.30;99.90;;;;;;5125734;27;20051;-68
2022/07/19 04:02:12;;;;;;;12.93;11.43;;;16.30;99.90;;;;;;5145943;27;20407;-68
2022/07/19 04:04:37;;;;;;;13.68;10.40;;;16.30;99.90;;;;;;5149570;27;20038;-68
2022/07/19 04:07:03;;;;;;;13.65;12.35;;;16.30;99.90;;;;;;5140737;27;20816;-68
2022/07/19 04:09:29;;;;;;;13.27;11.23;;;16.30;99.90;;;;;;5139991;27;20049;-68
2022/07/19 04:11:55;;;;;;;16.55;14.85;;;16.30;99.90;;;;;;5148812;27;20034;-68
2022/07/19 04:14:20;;;;;;;13.23;11.93;;;16.30;99.90;;;;;;5148803;27;20045;-68
2022/07/19 04:16:46;;;;;;;14.10;12.57;;;16.30;99.90;;;;;;5143749;27;20053;-68
2022/07/19 04:19:12;;;;;;;16.00;12.52;;;16.20;99.90;;;;;;5145504;27;20034;-68
2022/07/19 04:21:37;;;;;;;21.48;17.60;;;16.30;99.90;;;;;;5143705;27;20050;-68
2022/07/19 04:24:04;;;;;;;27.05;21.23;;;16.30;99.90;;;;;;5132821;27;20039;-69
2022/07/19 04:26:29;;;;;;;25.92;20.10;;;16.40;99.90;;;;;;5145340;27;20041;-68
2022/07/19 04:28:55;;;;;;;20.00;18.13;;;16.40;99.90;;;;;;5148942;27;20047;-68
2022/07/19 04:31:20;;;;;;;18.33;16.60;;;16.40;99.90;;;;;;5141228;27;20069;-68
2022/07/19 04:33:46;;;;;;;17.83;15.80;;;16.40;99.90;;;;;;5128660;27;20039;-69
2022/07/19 04:36:12;;;;;;;18.50;16.70;;;16.30;99.90;;;;;;5142477;27;20039;-68
2022/07/19 04:38:37;;;;;;;19.85;17.63;;;16.30;99.90;;;;;;5137424;27;20038;-67
2022/07/19 04:41:03;;;;;;;18.05;16.17;;;16.30;99.90;;;;;;5134037;27;20050;-68
2022/07/19 04:43:29;;;;;;;20.90;16.75;;;16.30;99.90;;;;;;5148515;27;20049;-68
2022/07/19 04:45:54;;;;;;;17.05;15.32;;;16.40;99.90;;;;;;5143705;27;20113;-68
2022/07/19 04:48:20;;;;;;;16.13;14.65;;;16.30;99.90;;;;;;5152049;27;20046;-68
2022/07/19 04:50:46;;;;;;;22.55;16.05;;;16.40;99.90;;;;;;5151264;27;20138;-68
2022/07/19 04:53:11;;;;;;;16.95;15.35;;;16.50;99.90;;;;;;5152851;27;20031;-68
2022/07/19 04:55:38;;;;;;;18.27;16.38;;;16.50;99.90;;;;;;5145604;27;20050;-68
2022/07/19 04:58:04;;;;;;;19.20;17.17;;;16.50;99.90;;;;;;5138364;27;20142;-68
2022/07/19 05:00:29;;;;;;;19.65;17.10;;;16.50;99.90;;;;;;5151453;27;20531;-68
2022/07/19 05:02:55;;;;;;;16.05;14.68;;;16.50;99.90;;;;;;5137995;27;20126;-68
2022/07/19 05:05:22;;;;;;;17.83;15.73;;;16.50;99.90;;;;;;5151868;27;20133;-68
2022/07/19 05:07:47;;;;;;;19.92;15.75;;;16.60;99.90;;;;;;5150808;27;20042;-68
2022/07/19 05:10:13;;;;;;;19.50;15.85;;;16.60;99.90;;;;;;5151713;27;20428;-67
2022/07/19 05:12:40;;;;;;;18.23;15.60;;;16.70;99.90;;;;;;5143464;27;20043;-67
2022/07/19 05:15:06;;;;;;;25.48;21.77;;;16.70;99.90;;;;;;5144770;27;20098;-68
2022/07/19 05:17:32;;;;;;;24.58;22.02;;;16.70;99.90;;;;;;5151982;27;20046;-68
2022/07/19 05:19:58;;;;;;;22.38;20.02;;;16.70;99.90;;;;;;5146467;27;20046;-68
2022/07/19 05:22:24;;;;;;;28.90;20.25;;;16.70;99.90;;;;;;5147520;27;20031;-67
2022/07/19 05:24:53;;;;;;;23.60;19.13;;;16.80;99.90;;;;;;5139701;27;20076;-67
2022/07/19 05:27:20;;;;;;;25.85;20.85;;;16.70;99.90;;;;;;5140122;27;20130;-67
2022/07/19 05:29:45;;;;;;;34.25;20.13;;;16.80;99.90;;;;;;5133600;27;20534;-67
2022/07/19 05:32:11;;;;;;;24.98;19.70;;;16.80;99.90;;;;;;5130098;27;20035;-68
2022/07/19 05:34:37;;;;;;;28.77;22.08;;;16.80;99.90;;;;;;5130833;27;20069;-67
2022/07/19 05:37:03;;;;;;;25.40;22.77;;;16.90;99.90;;;;;;5131721;27;20039;-67
2022/07/19 05:39:29;;;;;;;27.13;21.80;;;17.00;99.90;;;;;;5140473;27;20046;-68
2022/07/19 05:41:55;;;;;;;32.67;22.90;;;17.10;99.90;;;;;;5133000;27;20055;-67
2022/07/19 05:44:21;;;;;;;34.05;23.33;;;17.10;99.90;;;;;;5148678;27;20384;-67
2022/07/19 05:46:47;;;;;;;29.63;22.83;;;17.30;99.90;;;;;;5151504;27;20046;-68
2022/07/19 05:49:13;;;;;;;27.42;24.55;;;17.40;99.90;;;;;;5147391;27;20043;-68
2022/07/19 05:51:40;;;;;;;28.02;24.58;;;17.50;99.90;;;;;;5151628;27;20046;-68
2022/07/19 05:54:07;;;;;;;29.13;24.77;;;17.70;99.90;;;;;;5131013;27;20050;-68
2022/07/19 05:56:32;;;;;;;28.73;25.65;;;17.90;99.90;;;;;;5140751;27;20503;-68
2022/07/19 05:58:58;;;;;;;32.45;25.88;;;18.10;99.90;;;;;;5147069;27;20057;-67
2022/07/19 06:01:24;;;;;;;27.02;24.40;;;18.20;99.90;;;;;;5138211;27;20074;-68
2022/07/19 06:03:52;;;;;;;28.75;24.27;;;18.40;99.90;;;;;;5142938;27;20047;-68
2022/07/19 06:06:20;;;;;;;28.00;23.85;;;18.40;99.90;;;;;;5151197;27;20368;-68
2022/07/19 06:08:46;;;;;;;29.10;25.88;;;18.50;99.90;;;;;;5146113;27;20107;-68
2022/07/19 06:11:13;;;;;;;34.38;26.38;;;18.70;99.90;;;;;;5143535;27;20448;-68
2022/07/19 06:13:39;;;;;;;27.50;24.02;;;18.70;99.90;;;;;;5124669;27;20055;-68
2022/07/19 06:16:05;;;;;;;27.67;23.27;;;18.80;99.90;;;;;;5130172;27;20039;-68
2022/07/19 06:18:36;;;;;;;32.78;22.98;;;19.00;99.90;;;;;;5143425;27;20042;-68
2022/07/19 06:21:04;;;;;;;28.92;22.52;;;19.10;99.90;;;;;;5151054;27;20035;-68
2022/07/19 06:23:29;;;;;;;29.67;21.80;;;19.30;99.90;;;;;;5143274;27;20104;-68
2022/07/19 06:25:56;;;;;;;27.55;22.67;;;19.40;99.90;;;;;;5132270;27;20042;-69
2022/07/19 06:28:22;;;;;;;25.17;21.35;;;19.50;99.90;;;;;;5144795;27;20390;-68
2022/07/19 06:30:47;;;;;;;30.15;21.40;;;19.60;99.90;;;;;;5132250;27;20108;-69
2022/07/19 06:33:13;;;;;;;24.38;21.70;;;19.70;99.90;;;;;;5142864;27;20121;-69
2022/07/19 06:35:40;;;;;;;35.17;21.55;;;19.80;99.90;;;;;;5113542;27;20050;-69
2022/07/19 06:38:06;;;;;;;26.13;20.63;;;20.00;99.90;;;;;;5146024;27;20041;-69
2022/07/19 06:40:32;;;;;;;26.50;21.73;;;20.20;99.90;;;;;;5148096;27;20389;-69
2022/07/19 06:42:58;;;;;;;31.40;20.55;;;20.30;99.90;;;;;;5142087;27;20042;-69
2022/07/19 06:45:24;;;;;;;20.50;18.20;;;20.50;99.90;;;;;;5143848;27;20101;-69
2022/07/19 06:47:51;;;;;;;23.02;20.05;;;20.80;99.90;;;;;;5120885;27;20038;-69
2022/07/19 06:50:17;;;;;;;20.08;17.60;;;21.00;99.90;;;;;;5146219;27;20049;-70
2022/07/19 06:52:43;;;;;;;25.75;19.95;;;21.20;99.90;;;;;;5139978;27;20070;-70
2022/07/19 06:55:09;;;;;;;21.13;18.38;;;21.50;99.90;;;;;;5147345;27;20130;-70
2022/07/19 06:57:35;;;;;;;24.98;17.67;;;21.70;99.90;;;;;;5146154;27;20082;-70
2022/07/19 07:00:01;;;;;;;20.80;16.58;;;22.00;99.90;;;;;;5147230;27;20031;-70
2022/07/19 07:02:27;;;;;;;20.17;16.13;;;22.20;99.90;;;;;;5149511;27;20030;-70
2022/07/19 07:04:52;;;;;;;18.48;16.60;;;22.50;99.90;;;;;;5141708;27;20047;-70
2022/07/19 07:07:18;;;;;;;25.13;16.88;;;22.80;99.90;;;;;;5139712;27;20043;-70
2022/07/19 07:09:43;;;;;;;23.25;16.45;;;23.00;99.90;;;;;;5150456;27;20510;-70
2022/07/19 07:12:09;;;;;;;22.77;16.77;;;23.20;99.90;;;;;;5145004;27;20043;-70
2022/07/19 07:14:35;;;;;;;20.45;16.58;;;23.40;99.90;;;;;;5138016;27;20137;-70
2022/07/19 07:17:01;;;;;;;19.15;15.32;;;23.60;99.90;;;;;;5137538;27;20047;-70
2022/07/19 07:19:27;;;;;;;16.42;14.07;;;23.70;99.90;;;;;;5136303;27;20407;-70
2022/07/19 07:21:53;;;;;;;16.77;14.70;;;24.00;99.90;;;;;;5114219;27;20976;-70
2022/07/19 07:24:19;;;;;;;15.73;13.23;;;24.20;99.90;;;;;;5134947;27;20050;-70
2022/07/19 07:26:44;;;;;;;20.52;14.90;;;24.40;99.90;;;;;;5137817;27;20238;-70
2022/07/19 07:29:10;;;;;;;14.20;12.63;;;24.60;99.90;;;;;;5137388;27;20034;-70
2022/07/19 07:31:36;;;;;;;14.45;11.45;;;24.80;99.90;;;;;;5136352;27;20410;-69
2022/07/19 07:34:03;;;;;;;16.13;12.38;;;25.00;99.90;;;;;;5135787;27;20049;-70
2022/07/19 07:36:28;;;;;;;19.15;13.23;;;25.20;99.90;;;;;;5118928;27;20043;-70
2022/07/19 07:38:54;;;;;;;14.68;11.88;;;25.40;99.90;;;;;;5135693;27;20046;-70
2022/07/19 07:41:20;;;;;;;14.32;11.73;;;25.50;99.90;;;;;;5135394;27;20484;-70
2022/07/19 07:43:45;;;;;;;14.40;12.60;;;25.70;99.90;;;;;;5134240;27;20169;-71
2022/07/19 07:46:11;;;;;;;13.82;10.40;;;25.90;99.90;;;;;;5132977;27;20178;-70
2022/07/19 07:48:37;;;;;;;11.82;10.30;;;26.10;99.90;;;;;;5136363;27;20051;-70
2022/07/19 07:51:02;;;;;;;19.02;11.15;;;26.30;99.90;;;;;;5133470;27;20050;-71
2022/07/19 07:53:28;;;;;;;12.35;10.07;;;26.50;99.90;;;;;;5134234;27;20061;-71
2022/07/19 07:55:55;;;;;;;15.18;10.77;;;26.70;99.90;;;;;;5137535;27;20054;-70
2022/07/19 07:58:20;;;;;;;15.00;8.67;;;26.90;97.60;;;;;;5133547;27;20192;-70
2022/07/19 08:00:46;;;;;;;10.10;8.90;;;27.10;97.20;;;;;;5114596;27;20058;-70
2022/07/19 08:03:12;;;;;;;11.23;9.60;;;27.40;97.70;;;;;;5135862;27;20050;-70
2022/07/19 08:05:39;;;;;;;17.20;10.02;;;27.60;93.30;;;;;;5116498;27;20112;-70
2022/07/19 08:08:05;;;;;;;11.35;9.95;;;27.90;90.90;;;;;;5136326;27;20085;-70
2022/07/19 08:10:32;;;;;;;10.10;8.70;;;27.90;88.60;;;;;;5134136;27;20118;-70
2022/07/19 08:12:59;;;;;;;9.75;8.07;;;28.10;89.20;;;;;;5105800;27;20070;-70
2022/07/19 08:15:24;;;;;;;16.63;10.93;;;28.30;89.40;;;;;;5115896;27;20053;-70
2022/07/19 08:17:50;;;;;;;8.75;7.95;;;28.40;84.60;;;;;;5115774;27;20601;-70
2022/07/19 08:20:16;;;;;;;10.50;9.60;;;28.60;84.50;;;;;;5112503;27;20193;-70
2022/07/19 08:22:42;;;;;;;10.48;9.13;;;28.80;84.40;;;;;;5133761;27;20043;-70
2022/07/19 08:25:09;;;;;;;9.70;8.70;;;28.80;85.20;;;;;;5135833;27;20055;-70
2022/07/19 08:27:34;;;;;;;12.65;8.85;;;29.00;83.00;;;;;;5112651;27;20284;-70
2022/07/19 08:30:01;;;;;;;11.32;9.40;;;29.20;79.30;;;;;;5112887;27;20392;-70
2022/07/19 08:32:27;;;;;;;11.15;8.63;;;29.40;77.50;;;;;;5132125;27;20058;-70
2022/07/19 08:34:52;;;;;;;9.35;7.53;;;29.50;76.10;;;;;;5130780;27;20039;-70
2022/07/19 08:37:19;;;;;;;10.95;7.72;;;29.60;73.80;;;;;;5132647;27;20058;-70
2022/07/19 08:39:44;;;;;;;10.27;7.55;;;29.80;72.00;;;;;;5134459;27;20502;-70
2022/07/19 08:42:10;;;;;;;18.77;8.50;;;29.90;71.60;;;;;;5132180;27;20126;-69
2022/07/19 08:44:38;;;;;;;8.15;7.32;;;30.00;69.10;;;;;;5114712;27;20071;-70
2022/07/19 08:47:05;;;;;;;13.38;6.95;;;30.00;67.20;;;;;;5115224;27;20107;-71
2022/07/19 08:49:31;;;;;;;10.80;7.60;;;30.20;66.00;;;;;;5133996;27;20057;-70
2022/07/19 08:51:58;;;;;;;6.90;6.20;;;30.30;64.90;;;;;;5132590;27;20081;-71
2022/07/19 08:54:25;;;;;;;9.73;6.55;;;30.40;64.30;;;;;;5138665;27;20169;-70
2022/07/19 08:59:35;;;;;;;17.92;7.20;;;30.70;62.70;;;;;;5117053;27;20826;-71
2022/07/19 09:02:00;;;;;;;9.55;7.03;;;30.80;62.70;;;;;;5142058;27;20074;-71
2022/07/19 09:04:28;;;;;;;11.18;7.30;;;31.00;61.30;;;;;;5120435;27;20039;-71
2022/07/19 09:06:56;;;;;;;9.38;5.93;;;31.20;60.50;;;;;;5125292;27;20120;-70
2022/07/19 09:09:32;;;;;;;7.38;6.68;;;31.20;59.80;;;;;;5142198;27;20077;-71
2022/07/19 09:12:00;;;;;;;8.73;6.35;;;31.40;58.30;;;;;;5137418;27;20047;-70
2022/07/19 09:14:53;;;;;;;10.73;7.25;;;31.50;58.00;;;;;;5135810;27;20039;-71
2022/07/19 09:17:20;;;;;;;9.95;6.38;;;31.70;57.50;;;;;;5144209;27;20117;-71
2022/07/19 09:19:49;;;;;;;10.38;7.03;;;31.80;56.80;;;;;;5148287;27;20061;-71
2022/07/19 09:22:19;;;;;;;14.27;7.20;;;32.00;56.80;;;;;;5146458;27;20039;-70
2022/07/19 09:24:50;;;;;;;9.15;6.95;;;32.10;56.70;;;;;;5147373;27;20047;-70
2022/07/19 09:27:18;;;;;;;11.18;7.45;;;32.20;57.50;;;;;;5130395;27;20076;-71
2022/07/19 09:29:51;;;;;;;7.72;6.15;;;32.20;56.50;;;;;;5148934;27;20447;-70
2022/07/19 09:32:20;;;;;;;7.35;6.10;;;32.30;55.60;;;;;;5150421;27;20513;-70
2022/07/19 09:34:48;;;;;;;11.27;6.25;;;32.40;55.70;;;;;;5146601;27;20563;-70
2022/07/19 09:37:15;;;;;;;8.35;6.00;;;32.50;56.40;;;;;;5147232;27;20042;-71
2022/07/19 09:39:45;;;;;;;11.20;6.32;;;32.60;54.00;;;;;;5142602;27;20424;-71
2022/07/19 09:42:12;;;;;;;8.18;5.55;;;32.60;53.60;;;;;;5134442;27;20100;-70
2022/07/19 09:44:38;;;;;;;7.20;5.45;;;32.60;53.80;;;;;;5148951;27;20448;-71
2022/07/19 09:47:04;;;;;;;7.32;6.10;;;32.70;52.90;;;;;;5137171;27;20039;-71
2022/07/19 09:49:30;;;;;;;6.95;6.22;;;32.80;52.50;;;;;;5149487;27;20106;-71
2022/07/19 09:51:55;;;;;;;7.22;5.05;;;32.90;51.90;;;;;;5130112;27;20410;-71
2022/07/19 09:54:29;;;;;;;6.90;5.80;;;33.00;51.80;;;;;;5110931;27;20030;-71
2022/07/19 09:56:58;;;;;;;8.45;5.95;;;33.10;50.40;;;;;;5151677;27;20050;-71
2022/07/19 09:59:26;;;;;;;11.35;5.43;;;33.20;49.60;;;;;;5111215;27;20051;-70
2022/07/19 10:01:53;;;;;;;6.50;5.82;;;33.30;49.20;;;;;;5139964;27;20169;-70
2022/07/19 10:04:22;;;;;;;12.35;5.97;;;33.50;49.40;;;;;;5151014;27;20046;-70
2022/07/19 10:06:50;;;;;;;9.70;5.80;;;33.50;49.40;;;;;;5144041;27;20736;-71
2022/07/19 10:09:18;;;;;;;11.77;5.95;;;33.50;49.40;;;;;;5146193;27;20046;-71
2022/07/19 10:11:44;;;;;;;10.18;6.18;;;33.60;49.40;;;;;;5142301;27;20047;-70
2022/07/19 10:14:11;;;;;;;8.23;4.90;;;33.70;48.70;;;;;;5148036;27;20034;-70
2022/07/19 10:17:01;;;;;;;6.28;5.25;;;33.80;48.50;;;;;;5127856;27;20047;-70
2022/07/19 10:19:36;;;;;;;8.48;6.32;;;33.90;47.70;;;;;;5117558;27;20074;-70
2022/07/19 10:22:03;;;;;;;5.68;5.13;;;34.00;47.10;;;;;;5141706;27;20437;-69
2022/07/19 10:24:46;;;;;;;;;;;34.00;45.60;;;;;;5123541;27;20110;-69
2022/07/19 10:27:14;;;;;;;7.63;5.03;;;34.00;44.20;;;;;;5147449;27;19919;-69
2022/07/19 10:29:40;;;;;;;9.48;5.80;;;34.10;45.50;;;;;;5147036;27;20556;-69
2022/07/19 10:32:14;;;;;;;5.25;4.85;;;34.10;45.10;;;;;;5129978;27;20039;-69
2022/07/19 10:34:41;;;;;;;9.80;5.68;;;34.20;45.10;;;;;;5130895;27;20047;-69
2022/07/19 10:37:07;;;;;;;8.43;5.70;;;34.20;45.40;;;;;;5146040;27;20075;-69
2022/07/19 10:39:40;;;;;;;5.68;5.18;;;34.30;44.40;;;;;;5141784;27;20723;-69
2022/07/19 10:42:14;;;;;;;5.95;4.93;;;34.30;43.50;;;;;;5127114;27;20212;-70
2022/07/19 10:44:54;;;;;;;8.90;5.50;;;34.40;44.00;;;;;;5150886;27;20043;-70
2022/07/19 10:47:39;;;;;;;5.82;5.15;;;34.40;44.30;;;;;;5147490;27;20054;-70
2022/07/19 10:50:10;;;;;;;5.75;4.90;;;34.50;45.10;;;;;;5122801;27;20053;-70
2022/07/19 10:52:38;;;;;;;6.32;5.03;;;34.60;44.70;;;;;;5141953;27;20054;-70
2022/07/19 10:55:24;;;;;;;8.68;5.47;;;34.80;43.90;;;;;;5124664;27;20031;-70
2022/07/19 10:58:05;;;;;;;10.52;5.57;;;34.80;42.60;;;;;;5116385;27;20049;-69
2022/07/19 11:00:44;;;;;;;8.02;5.68;;;34.90;42.50;;;;;;5126017;27;20514;-70
2022/07/19 11:03:22;;;;;;;12.55;4.80;;;34.90;42.60;;;;;;5138185;27;20043;-69
2022/07/19 11:05:53;;;;;;;7.68;6.00;;;35.10;42.80;;;;;;5135884;27;20047;-69
2022/07/19 11:08:34;;;;;;;7.32;5.78;;;35.10;42.70;;;;;;5130742;27;20130;-69
2022/07/19 11:11:04;;;;;;;6.15;5.50;;;35.10;43.20;;;;;;5127552;27;20043;-68
2022/07/19 11:13:30;;;;;;;6.13;5.15;;;35.10;43.00;;;;;;5137752;27;20134;-69
2022/07/19 11:15:57;;;;;;;9.47;5.17;;;35.10;43.40;;;;;;5128687;27;20039;-70
2022/07/19 11:18:22;;;;;;;6.13;5.43;;;35.10;43.20;;;;;;5146124;27;20483;-70
2022/07/19 11:20:49;;;;;;;6.20;5.67;;;35.10;44.60;;;;;;5146340;27;20043;-69
2022/07/19 11:23:18;;;;;;;11.02;5.53;;;35.10;42.80;;;;;;5125814;27;20477;-69
2022/07/19 11:25:46;;;;;;;6.25;5.60;;;35.20;42.70;;;;;;5122921;27;20039;-69
2022/07/19 11:28:24;;;;;;;6.38;5.43;;;35.20;42.30;;;;;;5138189;27;20121;-69
2022/07/19 11:30:51;;;;;;;5.78;5.28;;;35.20;41.40;;;;;;5118406;27;20043;-69
2022/07/19 11:33:18;;;;;;;7.88;5.70;;;35.20;42.30;;;;;;5133696;27;20039;-70
2022/07/19 11:35:58;;;;;;;6.70;6.00;;;35.30;42.40;;;;;;5128868;27;20074;-69
2022/07/19 11:38:34;;;;;;;7.18;6.22;;;35.40;42.90;;;;;;5127140;27;20130;-68
2022/07/19 11:41:00;;;;;;;8.20;5.77;;;35.40;42.00;;;;;;5118831;27;20043;-69
2022/07/19 11:43:25;;;;;;;8.63;5.77;;;35.60;42.10;;;;;;5135935;27;20045;-70
2022/07/19 11:45:51;;;;;;;10.03;4.87;;;35.60;42.10;;;;;;5146865;27;20522;-70
2022/07/19 11:48:27;;;;;;;6.90;5.57;;;35.70;41.70;;;;;;5141170;27;20046;-69
2022/07/19 11:51:06;;;;;;;6.75;5.63;;;35.80;40.80;;;;;;5113341;27;20043;-69
2022/07/19 11:53:33;;;;;;;5.97;5.47;;;35.90;40.20;;;;;;5148732;27;20043;-69
2022/07/19 11:55:59;;;;;;;8.07;6.30;;;35.90;40.60;;;;;;5143656;27;20046;-69
2022/07/19 11:58:25;;;;;;;6.40;4.93;;;35.90;40.50;;;;;;5141649;27;20055;-70
2022/07/19 12:00:52;;;;;;;6.63;4.63;;;35.90;40.20;;;;;;5138630;27;20137;-70
2022/07/19 12:03:19;;;;;;;6.10;5.50;;;35.90;39.70;;;;;;5137589;27;20126;-70
2022/07/19 12:06:01;;;;;;;5.32;4.82;;;35.90;39.60;;;;;;5122901;27;20043;-70
2022/07/19 12:08:39;;;;;;;5.88;5.38;;;35.90;40.00;;;;;;5148980;27;20058;-69
2022/07/19 12:11:19;;;;;;;22.27;5.05;;;35.90;40.30;;;;;;5148895;27;20819;-69
2022/07/19 12:13:45;;;;;;;4.80;4.40;;;35.90;38.00;;;;;;5146196;27;20039;-69
2022/07/19 12:16:14;;;;;;;6.13;4.93;;;36.00;38.40;;;;;;5133413;27;20055;-70
2022/07/19 12:18:46;;;;;;;11.05;5.93;;;36.10;37.90;;;;;;5141059;27;20030;-69
2022/07/19 12:21:21;;;;;;;5.93;4.72;;;36.20;37.50;;;;;;5144348;27;20050;-69
2022/07/19 12:24:25;;;;;;;10.68;6.43;;;36.20;37.70;;;;;;5110453;28;20073;-69
2022/07/19 12:27:04;;;;;;;7.20;5.15;;;36.20;36.60;;;;;;5134263;27;20042;-70
2022/07/19 12:29:33;;;;;;;4.90;4.32;;;36.10;38.00;;;;;;5143550;27;20043;-70
2022/07/19 12:32:08;;;;;;;5.10;4.60;;;36.10;37.90;;;;;;5123925;27;20050;-69
2022/07/19 12:34:50;;;;;;;4.55;4.15;;;36.20;37.10;;;;;;5134618;27;20047;-70
2022/07/19 12:37:30;;;;;;;4.93;4.53;;;36.20;35.90;;;;;;5134523;27;21288;-70